Mayport Ns (Adm David L. Mcdonald Field) Airport
KNRB : now visible

Airfield :











YOU CAN JOIN US ON...

 
LOGIN :

Register | Disclaimer

   EN    FR    IT 

 









Legend :    VFR   Marginal VFR   IFR   Intensive IFR   Very Intensive IFR
Visi :
Ceiling :
>= 8 km
>= 3000ft
5 to 8 km
1000 to 3000 ft
1500m to 5 km
500 to 1000 ft
800 to 1500m
200 to 500 ft
< 800m
< 200 ft
Symbols :   Thunderstorms  Fog  Heavy snow  Heavy precipitations  Wind > 20 kt







- Airport Elevation : 15 ft


KNRB - Mayport Ns (Adm David L. Mcdonald Field)

CURRENT METAR :
  • 200952Z 10017G21KT 10SM BKN042 26/18 A3010 RMK AO2 SLP193 T02610183

EXPIRED METARs :
  • 200900Z 09015KT 10SM BKN040 BKN080 26/18 A3009 RMK AO2 T02560183
  • 200852Z AUTO 06015G20KT 10SM OVC041 26/20 A3009 RMK AO2 SLP189 T02610200 55005
  • 200752Z AUTO 06017G27KT 10SM SCT039 OVC080 26/20 A3009 RMK AO2 PK WND 08027/0750 SLP187 T02560200

TAF COR TAF KNRB
Valid from the 20 at 07:00 until the 21 at 07:00 UTC


2007/2107 07015G25KT 9999 SCT025 BKN040 520005 QNH3005INS
FM200800 07015G25KT 9999 VCSH BKN025 OVC040 520005 QNH3003INS
FM201600 07015G25KT 9999 VCSH SCT025 BKN040 BKN080 520005 QNH3012INS
FM202300 09013G20KT 9999 VCSH BKN030 BKN150 50000 QNH3013INS AUTOMATED SENSOR METWATCH 2007 TIL 2009 T24/2010Z T31/2019Z COR 0730 FN00198
No reported NOTAMs for that airfield.



MET'MAP, your aeronautical weather chart ! - Copyright ORBIFLY December 2007 - Disclaimer

ORBIFLY MET'MAP TEAM :

Programming & Development : Alexandra Zaïnal
Concept & Development : Baudouin d'Aumeries
Co-Development & Prog : Marc-Olivier Méhu
Technical & hardware support : Manuel Goepfert

Contact : metmap@orbifly.com




SOURCES & CREDITS :

   NOAA       Earth
Advisory